createdAt,value
2022-09-05T00:02:49.157Z,6.00
2022-09-05T00:06:10.170Z,5.60
2022-09-05T00:09:21.372Z,6.03
2022-09-05T00:12:25.996Z,6.10
2022-09-05T00:15:47.375Z,6.13
2022-09-05T00:24:20.511Z,5.70
2022-09-05T00:24:36.936Z,5.68
2022-09-05T00:26:50.949Z,6.88
2022-09-05T00:31:05.771Z,6.50
2022-09-05T00:33:54.547Z,6.70
2022-09-05T00:36:57.087Z,7.07
2022-09-05T00:40:41.003Z,6.32
2022-09-05T00:43:49.757Z,6.88
2022-09-05T00:46:56.408Z,6.50
2022-09-05T00:50:26.052Z,5.97
2022-09-05T00:54:11.714Z,6.57
2022-09-05T00:57:55.023Z,7.30
2022-09-05T01:00:59.191Z,7.05
2022-09-05T01:04:10.127Z,6.60
2022-09-05T01:07:29.959Z,6.97
2022-09-05T01:10:46.327Z,6.70
2022-09-05T01:14:02.074Z,6.47
2022-09-05T01:17:25.840Z,7.18
2022-09-05T01:21:02.465Z,7.07
2022-09-05T01:24:27.990Z,6.97
2022-09-05T01:29:13.555Z,7.25
2022-09-05T01:31:21.285Z,6.47
2022-09-05T01:34:47.012Z,7.28
2022-09-05T01:38:14.392Z,7.20
2022-09-05T01:41:39.722Z,7.40
2022-09-05T01:44:55.380Z,7.27
2022-09-05T01:48:26.823Z,6.68
2022-09-05T01:51:36.658Z,7.70
2022-09-05T01:54:47.946Z,8.02
2022-09-05T01:58:44.605Z,7.47
2022-09-05T02:02:22.779Z,7.30
2022-09-05T02:05:57.426Z,7.53
2022-09-05T02:09:14.312Z,7.78
2022-09-05T02:12:42.061Z,8.32
2022-09-05T02:16:11.007Z,7.73
2022-09-05T02:19:25.697Z,7.60
2022-09-05T02:22:40.791Z,8.20
2022-09-05T02:26:03.229Z,8.18
2022-09-05T02:29:29.175Z,8.30
2022-09-05T02:32:40.644Z,8.93
2022-09-05T02:35:46.045Z,8.50
2022-09-05T02:41:55.610Z,8.23
2022-09-05T02:45:08.248Z,9.07
2022-09-05T02:46:30.586Z,9.25
2022-09-05T02:55:26.611Z,9.10
2022-09-05T02:57:33.718Z,9.63
2022-09-05T02:57:38.173Z,9.10
2022-09-05T03:00:23.943Z,9.43
2022-09-05T03:03:54.168Z,9.02
2022-09-05T03:07:02.700Z,10.03
2022-09-05T03:10:53.893Z,10.00
2022-09-05T03:14:18.758Z,9.55
2022-09-05T03:17:41.066Z,10.23
2022-09-05T03:21:09.434Z,10.88
2022-09-05T03:24:27.268Z,9.97
2022-09-05T03:27:51.588Z,10.17
2022-09-05T03:31:30.858Z,10.60
2022-09-05T03:34:57.911Z,9.75
2022-09-05T03:38:23.582Z,11.40
2022-09-05T03:41:44.850Z,11.27
2022-09-05T03:45:16.823Z,10.00
2022-09-05T03:49:25.880Z,10.48
2022-09-05T03:57:17.190Z,11.25
2022-09-05T03:57:19.052Z,11.20
2022-09-05T03:59:43.145Z,10.63
2022-09-05T04:04:54.905Z,10.73
2022-09-05T04:08:24.462Z,11.23
2022-09-05T04:10:10.080Z,11.48
2022-09-05T04:13:25.317Z,10.63
2022-09-05T04:16:42.276Z,11.17
2022-09-05T04:19:55.263Z,14.83
2022-09-05T04:23:23.939Z,22.27
2022-09-05T04:26:39.066Z,21.50
2022-09-05T04:29:56.624Z,15.13
2022-09-05T04:33:36.454Z,17.70
2022-09-05T04:36:40.549Z,14.03
2022-09-05T04:39:47.164Z,14.35
2022-09-05T04:42:51.331Z,11.98
2022-09-05T04:46:48.593Z,11.18
2022-09-05T04:50:20.283Z,11.37
2022-09-05T04:53:40.071Z,10.47
2022-09-05T04:56:46.289Z,11.25
2022-09-05T05:06:17.931Z,14.00
2022-09-05T05:08:06.572Z,13.98
2022-09-05T05:16:29.904Z,13.68
2022-09-05T05:18:12.645Z,12.95
2022-09-05T05:18:48.290Z,12.23
2022-09-05T05:21:59.501Z,12.77
2022-09-05T05:25:02.663Z,12.45
2022-09-05T05:28:24.308Z,12.43
2022-09-05T05:31:40.815Z,12.10
2022-09-05T05:34:48.834Z,12.13
2022-09-05T05:38:17.727Z,12.40
2022-09-05T05:41:30.946Z,11.90
2022-09-05T05:44:36.654Z,13.15
2022-09-05T05:47:44.076Z,11.77
2022-09-05T05:51:03.241Z,12.57
2022-09-05T05:54:33.396Z,12.03
2022-09-05T05:57:54.079Z,12.60
2022-09-05T06:01:37.617Z,13.02
2022-09-05T06:05:16.704Z,12.45
2022-09-05T06:11:37.572Z,11.40
2022-09-05T06:14:56.249Z,10.80
2022-09-05T06:16:16.304Z,11.20
2022-09-05T06:20:34.480Z,8.82
2022-09-05T06:23:36.575Z,10.13
2022-09-05T06:27:06.922Z,10.33
2022-09-05T06:30:20.752Z,11.10
2022-09-05T06:34:00.928Z,10.52
2022-09-05T06:37:40.582Z,11.90
2022-09-05T06:40:57.418Z,11.60
2022-09-05T06:44:15.277Z,10.73
2022-09-05T06:47:33.472Z,10.50
2022-09-05T06:51:11.762Z,9.68
2022-09-05T06:54:25.343Z,10.30
2022-09-05T06:58:05.526Z,10.27
2022-09-05T07:01:10.210Z,9.73
2022-09-05T07:05:24.053Z,9.03
2022-09-05T07:08:35.734Z,8.07
2022-09-05T07:11:58.374Z,8.02
2022-09-05T07:15:21.955Z,8.32
2022-09-05T07:18:44.001Z,7.93
2022-09-05T07:22:29.343Z,6.67
2022-09-05T07:25:41.213Z,6.93
2022-09-05T07:28:50.019Z,6.03
2022-09-05T07:31:56.242Z,6.20
2022-09-05T07:35:03.066Z,7.15
2022-09-05T07:38:17.840Z,7.13
2022-09-05T07:41:30.466Z,7.53
2022-09-05T07:44:40.559Z,7.65
2022-09-05T07:47:53.673Z,6.68
2022-09-05T07:56:47.079Z,6.82
2022-09-05T07:57:15.594Z,6.27
2022-09-05T07:57:55.497Z,5.80
2022-09-05T08:00:58.396Z,6.13
2022-09-05T08:04:05.510Z,5.82
2022-09-05T08:07:47.298Z,6.35
2022-09-05T08:11:25.825Z,6.17
2022-09-05T08:14:45.155Z,6.75
2022-09-05T08:18:12.736Z,6.88
2022-09-05T08:21:28.100Z,5.88
2022-09-05T08:24:41.925Z,6.80
2022-09-05T08:27:54.183Z,6.23
2022-09-05T08:31:04.195Z,6.50
2022-09-05T08:34:13.968Z,5.65
2022-09-05T08:37:21.206Z,6.32
2022-09-05T08:40:51.220Z,7.13
2022-09-05T08:46:44.901Z,7.27
2022-09-05T08:47:56.671Z,6.43
2022-09-05T08:51:25.500Z,6.50
2022-09-05T08:55:06.320Z,6.90
2022-09-05T08:58:37.627Z,7.70
2022-09-05T09:02:45.056Z,5.80
2022-09-05T09:06:14.563Z,5.60
2022-09-05T09:09:30.416Z,5.88
2022-09-05T09:12:35.833Z,6.05
2022-09-05T09:15:46.984Z,6.63
2022-09-05T09:18:49.468Z,5.40
2022-09-05T09:22:03.334Z,6.30
2022-09-05T09:25:25.879Z,5.90
2022-09-05T09:28:51.457Z,5.35
2022-09-05T09:31:54.821Z,4.88
2022-09-05T09:35:20.848Z,4.80
2022-09-05T09:38:40.467Z,4.30
2022-09-05T09:41:53.847Z,5.13
2022-09-05T09:45:27.775Z,4.80
2022-09-05T09:49:02.968Z,4.05
2022-09-05T09:52:24.595Z,4.17
2022-09-05T09:56:10.036Z,3.97
2022-09-05T09:59:28.729Z,4.60
2022-09-05T10:06:50.995Z,4.80
2022-09-05T10:10:47.956Z,4.20
2022-09-05T10:10:55.368Z,4.90
2022-09-05T10:14:26.252Z,4.15
2022-09-05T10:18:14.566Z,4.00
2022-09-05T10:21:25.467Z,3.65
2022-09-05T10:24:42.421Z,3.78
2022-09-05T10:28:05.358Z,3.60
2022-09-05T10:32:56.018Z,3.88
2022-09-05T10:35:17.847Z,4.20
2022-09-05T10:38:44.537Z,4.15
2022-09-05T10:42:03.102Z,4.57
2022-09-05T10:45:20.198Z,4.20
2022-09-05T10:48:43.600Z,4.60
2022-09-05T10:51:56.741Z,3.40
2022-09-05T10:55:26.326Z,3.15
2022-09-05T10:59:53.312Z,3.13
2022-09-05T11:02:26.499Z,3.20
2022-09-05T11:05:39.929Z,3.40
2022-09-05T11:08:54.043Z,3.42
2022-09-05T11:12:37.995Z,3.20
2022-09-05T11:16:03.961Z,3.10
2022-09-05T11:19:18.196Z,3.40
2022-09-05T11:22:34.909Z,3.20
2022-09-05T11:25:41.024Z,2.72
2022-09-05T11:29:06.994Z,2.95
2022-09-05T11:36:17.547Z,2.90
2022-09-05T11:40:10.854Z,3.13
2022-09-05T11:44:02.454Z,3.20
2022-09-05T11:47:50.370Z,3.10
2022-09-05T11:51:33.664Z,3.40
2022-09-05T11:54:42.836Z,3.00
2022-09-05T11:58:27.100Z,3.22
2022-09-05T12:01:44.815Z,3.35
2022-09-05T12:05:47.268Z,3.38
2022-09-05T12:09:01.849Z,3.30
2022-09-05T12:12:38.697Z,3.47
2022-09-05T12:16:08.469Z,3.40
2022-09-05T12:23:09.826Z,3.63
2022-09-05T12:27:42.120Z,3.67
2022-09-05T12:30:57.189Z,3.80
2022-09-05T12:36:08.276Z,4.70
2022-09-05T12:40:35.523Z,3.85
2022-09-05T12:41:41.301Z,3.38
2022-09-05T12:41:43.898Z,4.10
2022-09-05T12:44:55.687Z,3.88
2022-09-05T12:48:12.469Z,3.93
2022-09-05T12:51:45.296Z,3.78
2022-09-05T12:54:57.173Z,3.80
2022-09-05T13:02:55.091Z,3.75
2022-09-05T13:03:12.525Z,3.10
2022-09-05T13:05:02.703Z,3.20
2022-09-05T13:08:13.296Z,4.20
2022-09-05T13:14:49.940Z,4.00
2022-09-05T13:15:20.023Z,3.20
2022-09-05T13:18:30.823Z,4.30
2022-09-05T13:21:40.582Z,3.83
2022-09-05T13:24:53.814Z,3.25
2022-09-05T13:28:09.502Z,3.90
2022-09-05T13:37:59.372Z,4.10
2022-09-05T13:38:03.759Z,3.90
2022-09-05T13:38:48.445Z,3.70
2022-09-05T13:41:48.824Z,3.97
2022-09-05T13:44:56.455Z,3.20
2022-09-05T13:48:15.344Z,3.25
2022-09-05T13:51:28.944Z,4.00
2022-09-05T13:54:54.669Z,3.70
2022-09-05T13:58:09.443Z,3.80
2022-09-05T14:01:20.476Z,3.92
2022-09-05T14:08:34.460Z,3.30
2022-09-05T14:11:58.280Z,3.37
2022-09-05T14:15:32.052Z,3.47
2022-09-05T14:18:58.349Z,3.42
2022-09-05T14:22:12.749Z,3.20
2022-09-05T14:25:29.961Z,3.42
2022-09-05T14:28:46.611Z,3.50
2022-09-05T14:37:41.352Z,3.70
2022-09-05T14:37:44.262Z,3.60
2022-09-05T14:39:34.129Z,3.70
2022-09-05T14:43:26.840Z,4.28
2022-09-05T14:46:42.114Z,3.57
2022-09-05T14:49:52.257Z,3.80
2022-09-05T14:57:49.887Z,4.20
2022-09-05T15:02:54.609Z,4.30
2022-09-05T15:03:19.325Z,4.23
2022-09-05T15:06:28.148Z,3.95
2022-09-05T15:12:20.839Z,3.60
2022-09-05T15:13:13.307Z,3.80
2022-09-05T15:16:17.212Z,3.20
2022-09-05T15:20:05.676Z,3.23
2022-09-05T15:23:31.723Z,3.00
2022-09-05T15:26:47.979Z,2.90
2022-09-05T15:29:57.118Z,3.00
2022-09-05T15:33:11.628Z,3.00
2022-09-05T15:36:29.671Z,2.77
2022-09-05T15:39:32.148Z,2.75
2022-09-05T15:42:37.904Z,2.90
2022-09-05T15:45:40.545Z,3.00
2022-09-05T15:48:53.083Z,2.80
2022-09-05T15:52:01.420Z,2.83
2022-09-05T15:55:17.607Z,3.17
2022-09-05T15:58:20.094Z,2.92
2022-09-05T16:01:59.854Z,3.17
2022-09-05T16:10:30.170Z,2.92
2022-09-05T16:10:48.419Z,2.90
2022-09-05T16:12:16.628Z,2.70
2022-09-05T16:18:58.608Z,2.55
2022-09-05T16:23:20.767Z,2.85
2022-09-05T16:23:25.483Z,2.80
2022-09-05T16:25:46.285Z,2.70
2022-09-05T16:29:07.368Z,2.72
2022-09-05T16:32:12.527Z,2.90
2022-09-05T16:35:17.737Z,2.97
2022-09-05T16:38:50.055Z,2.97
2022-09-05T16:42:13.863Z,3.00
2022-09-05T16:45:16.324Z,2.50
2022-09-05T16:48:30.247Z,2.83
2022-09-05T16:51:38.803Z,3.13
2022-09-05T16:54:43.622Z,3.55
2022-09-05T16:58:14.645Z,3.57
2022-09-05T17:01:32.527Z,3.40
2022-09-05T17:05:03.443Z,3.28
2022-09-05T17:08:19.408Z,3.03
2022-09-05T17:11:29.792Z,3.30
2022-09-05T17:14:39.261Z,3.27
2022-09-05T17:18:21.249Z,3.28
2022-09-05T17:23:23.887Z,3.50
2022-09-05T17:29:27.403Z,3.58
2022-09-05T17:29:30.889Z,3.20
2022-09-05T17:32:19.066Z,3.67
2022-09-05T17:35:54.065Z,3.78
2022-09-05T17:39:45.179Z,3.88
2022-09-05T17:42:59.665Z,3.85
2022-09-05T17:46:17.581Z,4.43
2022-09-05T17:49:40.469Z,4.57
2022-09-05T17:53:24.948Z,4.13
2022-09-05T17:56:48.101Z,4.75
2022-09-05T17:59:51.501Z,5.72
2022-09-05T18:02:56.684Z,5.60
2022-09-05T18:06:03.977Z,4.80
2022-09-05T18:09:30.797Z,4.80
2022-09-05T18:13:13.802Z,4.35
2022-09-05T18:16:02.178Z,4.35
2022-09-05T18:19:32.621Z,4.22
2022-09-05T18:22:41.014Z,4.67
2022-09-05T18:25:47.141Z,5.25
2022-09-05T18:28:55.621Z,4.53
2022-09-05T18:32:05.193Z,5.28
2022-09-05T18:35:36.119Z,4.80
2022-09-05T18:38:51.050Z,5.10
2022-09-05T18:42:25.994Z,5.35
2022-09-05T18:45:37.465Z,5.32
2022-09-05T18:50:05.206Z,5.95
2022-09-05T18:52:23.435Z,5.85
2022-09-05T18:55:52.672Z,5.30
2022-09-05T18:59:09.882Z,5.85
2022-09-05T19:02:50.503Z,6.25
2022-09-05T19:06:36.634Z,5.93
2022-09-05T19:09:35.611Z,6.75
2022-09-05T19:12:53.295Z,6.10
2022-09-05T19:16:42.214Z,5.93
2022-09-05T19:19:24.555Z,6.57
2022-09-05T19:23:01.021Z,6.10
2022-09-05T19:25:58.408Z,6.13
2022-09-05T19:36:44.869Z,6.47
2022-09-05T19:36:55.345Z,6.72
2022-09-05T19:37:05.139Z,6.30
2022-09-05T19:44:39.004Z,6.13
2022-09-05T19:47:42.435Z,6.63
2022-09-05T19:47:56.107Z,7.30
2022-09-05T19:49:37.438Z,6.82
2022-09-05T19:52:40.448Z,7.13
2022-09-05T19:55:44.602Z,7.32
2022-09-05T19:58:47.647Z,7.30
2022-09-05T20:01:51.916Z,7.07
2022-09-05T20:04:57.574Z,6.65
2022-09-05T20:08:02.053Z,6.65
2022-09-05T20:11:06.580Z,6.97
2022-09-05T20:14:30.578Z,6.67
2022-09-05T20:17:34.544Z,6.07
2022-09-05T20:20:36.941Z,6.25
2022-09-05T20:23:49.194Z,6.75
2022-09-05T20:26:52.150Z,7.32
2022-09-05T20:30:00.948Z,6.22
2022-09-05T20:33:18.175Z,6.50
2022-09-05T20:43:17.031Z,6.70
2022-09-05T20:43:17.392Z,6.55
2022-09-05T20:43:37.020Z,6.75
2022-09-05T20:51:03.975Z,6.47
2022-09-05T20:54:20.152Z,6.83
2022-09-05T20:54:25.428Z,6.55
2022-09-05T20:57:22.912Z,6.70
2022-09-05T21:00:25.480Z,6.82
2022-09-05T21:03:38.144Z,6.57
2022-09-05T21:06:41.459Z,6.80
2022-09-05T21:09:54.489Z,6.88
2022-09-05T21:12:58.476Z,6.43
2022-09-05T21:16:01.383Z,7.25
2022-09-05T21:19:04.466Z,7.18
2022-09-05T21:22:16.116Z,6.73
2022-09-05T21:25:22.054Z,7.35
2022-09-05T21:28:36.452Z,7.70
2022-09-05T21:31:54.606Z,7.70
2022-09-05T21:34:59.803Z,7.95
2022-09-05T21:38:02.326Z,7.30
2022-09-05T21:41:05.508Z,8.40
2022-09-05T21:47:41.437Z,7.90
2022-09-05T21:47:49.748Z,7.38
2022-09-05T21:51:00.070Z,6.93
2022-09-05T21:59:13.570Z,6.70
2022-09-05T21:59:32.703Z,6.53
2022-09-05T22:00:56.086Z,6.20
2022-09-05T22:03:58.509Z,6.65
2022-09-05T22:07:04.807Z,5.97
2022-09-05T22:10:08.589Z,7.43
2022-09-05T22:13:12.005Z,7.70
2022-09-05T22:16:15.201Z,7.25
2022-09-05T22:19:37.086Z,7.28
2022-09-05T22:22:41.406Z,7.47
2022-09-05T22:25:45.566Z,6.90
2022-09-05T22:28:51.082Z,7.68
2022-09-05T22:31:54.801Z,7.97
2022-09-05T22:34:57.419Z,8.30
2022-09-05T22:38:16.465Z,7.30
2022-09-05T22:41:30.381Z,7.37
2022-09-05T22:44:34.005Z,7.35
2022-09-05T22:47:36.614Z,6.97
2022-09-05T22:50:40.252Z,6.85
2022-09-05T22:53:42.859Z,7.20
2022-09-05T22:56:45.238Z,7.63
2022-09-05T22:59:47.581Z,7.15
2022-09-05T23:02:52.572Z,7.53
2022-09-05T23:05:55.313Z,7.22
2022-09-05T23:08:57.843Z,7.47
2022-09-05T23:12:00.263Z,7.70
2022-09-05T23:15:02.751Z,6.97
2022-09-05T23:18:05.763Z,7.35
2022-09-05T23:21:11.613Z,7.45
2022-09-05T23:24:14.075Z,7.60
2022-09-05T23:27:16.594Z,7.87
2022-09-05T23:30:19.299Z,7.40
2022-09-05T23:33:21.699Z,7.43
2022-09-05T23:36:24.214Z,8.00
2022-09-05T23:39:26.932Z,7.50
2022-09-05T23:42:29.667Z,7.83
2022-09-05T23:45:32.407Z,8.00
2022-09-05T23:48:36.387Z,8.13
2022-09-05T23:51:38.806Z,8.00
2022-09-05T23:54:41.187Z,7.80
2022-09-05T23:57:44.666Z,8.00
